Time;durP1;ratioP1;P1;durP2;ratioP2;P2;SDS_P1;SDS_P2;PMS_P1;PMS_P2;Temp;Humidity;BMP_temperature;BMP_pressure;BME280_temperature;BME280_humidity;BME280_pressure;Samples;Min_cycle;Max_cycle;Signal;HPM_P1;HPM_P2
2021/07/02 00:02:12;;;;;;;;;;;;;;;27.61;40.75;99863.28;4452755;32;857051;-84
2021/07/02 00:15:25;;;;;;;;;;;;;;;27.61;40.19;99854.44;4436417;32;910512;-86
2021/07/02 00:18:15;;;;;;;;;;;;;;;27.20;41.19;99852.38;4503802;31;1236082;-86
2021/07/02 00:21:03;;;;;;;;;;;;;;;27.24;40.43;99858.09;4467166;32;860425;-86
2021/07/02 00:23:55;;;;;;;;;;;;;;;26.85;40.94;99856.53;4482542;31;871734;-86
2021/07/02 00:26:49;;;;;;;;;;;;;;;26.32;41.87;99860.72;4483488;31;833244;-87
2021/07/02 00:29:40;;;;;;;;;;;;;;;27.01;40.60;99855.87;4483612;31;834991;-85
2021/07/02 00:32:28;;;;;;;;;;;;;;;27.34;39.81;99849.00;4471918;31;1206155;-87
2021/07/02 00:35:26;;;;;;;;;;;;;;;27.76;38.46;99836.84;4506500;31;733581;-90
2021/07/02 00:38:11;;;;;;;;;;;;;;;27.17;39.41;99844.50;4194305;31;9687241;-85
2021/07/02 00:41:07;;;;;;;;;;;;;;;27.55;38.50;99837.19;4514896;31;835813;-87
2021/07/02 00:43:55;;;;;;;;;;;;;;;27.38;38.53;99844.22;4468242;31;859202;-87
2021/07/02 00:57:09;;;;;;;;;;;;;;;27.33;39.00;99841.97;4453850;32;774746;-86
2021/07/02 01:10:19;;;;;;;;;;;;;;;27.19;39.27;99844.34;4454040;32;817822;-84
2021/07/02 01:13:11;;;;;;;;;;;;;;;27.19;39.12;99847.00;4468885;31;770584;-84
2021/07/02 01:16:05;;;;;;;;;;;;;;;27.32;39.57;99844.78;4482806;31;827381;-86
2021/07/02 01:18:58;;;;;;;;;;;;;;;26.94;40.02;99846.78;4436498;31;1806820;-85
2021/07/02 01:21:48;;;;;;;;;;;;;;;27.55;38.64;99852.38;4480852;31;887689;-85
2021/07/02 01:24:38;;;;;;;;;;;;;;;27.10;39.15;99849.63;4466939;32;829175;-84
2021/07/02 01:27:27;;;;;;;;;;;;;;;26.90;39.73;99843.56;4483582;31;812475;-84
2021/07/02 01:30:14;;;;;;;;;;;;;;;27.30;39.03;99844.94;4483012;31;820604;-84
2021/07/02 01:33:06;;;;;;;;;;;;;;;27.25;38.84;99849.91;4481973;31;869224;-86
2021/07/02 01:36:05;;;;;;;;;;;;;;;26.87;39.73;99841.19;4513494;31;873474;-86
2021/07/02 01:38:53;;;;;;;;;;;;;;;26.47;40.53;99842.34;4466038;31;876947;-86
2021/07/02 01:41:44;;;;;;;;;;;;;;;27.11;39.10;99835.25;4483599;31;826767;-86
2021/07/02 01:44:36;;;;;;;;;;;;;;;27.07;39.41;99838.38;4452253;31;1819341;-86
2021/07/02 01:47:27;;;;;;;;;;;;;;;27.35;38.51;99839.16;4205509;31;9252118;-86
2021/07/02 01:50:27;;;;;;;;;;;;;;;27.15;39.30;99833.09;4515744;31;788650;-84
2021/07/02 01:53:18;;;;;;;;;;;;;;;26.99;39.37;99833.78;4466974;31;846339;-84
2021/07/02 01:56:10;;;;;;;;;;;;;;;27.42;38.51;99842.91;4481196;31;888670;-87
2021/07/02 01:59:10;;;;;;;;;;;;;;;27.13;38.96;99843.94;4331551;31;6659544;-85
2021/07/02 02:02:00;;;;;;;;;;;;;;;27.20;38.84;99838.00;4450779;32;874811;-84
2021/07/02 02:15:08;;;;;;;;;;;;;;;26.76;39.39;99836.88;4468799;31;818655;-84
2021/07/02 02:17:56;;;;;;;;;;;;;;;26.49;39.99;99838.56;4468478;31;861183;-84
2021/07/02 02:20:44;;;;;;;;;;;;;;;26.86;39.16;99838.66;4468749;32;852999;-84
2021/07/02 02:23:36;;;;;;;;;;;;;;;27.14;38.53;99834.94;4483632;31;825266;-87
2021/07/02 02:27:15;;;;;;;;;;;;;;;27.06;38.41;99834.03;4502460;31;789114;-87
2021/07/02 02:30:07;;;;;;;;;;;;;;;26.99;38.77;99837.31;4514237;31;848348;-84
2021/07/02 02:33:05;;;;;;;;;;;;;;;27.48;37.67;99842.31;4501551;31;803942;-86
2021/07/02 02:35:54;;;;;;;;;;;;;;;27.29;37.99;99842.44;4481567;31;899784;-86
2021/07/02 02:38:43;;;;;;;;;;;;;;;27.15;37.99;99838.44;4468855;31;800880;-87
2021/07/02 02:41:30;;;;;;;;;;;;;;;27.18;37.78;99838.16;4469787;31;820655;-86
2021/07/02 02:54:34;;;;;;;;;;;;;;;27.38;37.62;99838.88;4455230;32;748444;-85
2021/07/02 03:07:38;;;;;;;;;;;;;;;27.14;37.94;99837.62;4455162;32;751601;-86
2021/07/02 03:10:46;;;;;;;;;;;;;;;27.12;37.92;99836.09;4483262;31;843785;-85
2021/07/02 03:13:37;;;;;;;;;;;;;;;26.82;38.31;99836.28;4499962;31;857168;-87
2021/07/02 03:16:24;;;;;;;;;;;;;;;27.25;38.02;99841.91;4486005;31;801183;-85
2021/07/02 03:19:11;;;;;;;;;;;;;;;27.14;37.96;99842.13;4500380;31;846281;-84
2021/07/02 03:21:59;;;;;;;;;;;;;;;27.21;37.66;99843.19;4481855;31;894447;-86
2021/07/02 03:24:51;;;;;;;;;;;;;;;26.85;38.24;99840.50;4484269;31;812292;-86
2021/07/02 03:27:39;;;;;;;;;;;;;;;26.95;38.48;99843.09;4482203;31;884415;-86
2021/07/02 03:30:28;;;;;;;;;;;;;;;27.48;37.46;99844.12;4466321;32;881475;-87
2021/07/02 03:33:19;;;;;;;;;;;;;;;27.50;37.52;99842.16;4490807;31;1152430;-86
2021/07/02 03:36:08;;;;;;;;;;;;;;;27.56;37.44;99836.19;4447051;31;1982910;-87
2021/07/02 03:39:10;;;;;;;;;;;;;;;27.44;37.75;99838.25;4482872;31;846035;-85
2021/07/02 03:42:05;;;;;;;;;;;;;;;27.71;37.27;99838.28;4465606;32;896605;-87
2021/07/02 03:45:00;;;;;;;;;;;;;;;27.31;37.61;99835.94;4516594;31;827151;-87
2021/07/02 03:47:58;;;;;;;;;;;;;;;27.81;36.88;99841.69;4472852;31;1173397;-86
2021/07/02 03:50:50;;;;;;;;;;;;;;;27.46;37.30;99838.09;4467608;31;823287;-87
2021/07/02 03:53:36;;;;;;;;;;;;;;;27.52;37.38;99834.78;4469601;31;800841;-84
2021/07/02 03:56:35;;;;;;;;;;;;;;;27.61;37.21;99838.38;4505015;31;736570;-90
2021/07/02 03:59:22;;;;;;;;;;;;;;;27.37;37.52;99836.31;4498147;31;862338;-84
2021/07/02 04:02:14;;;;;;;;;;;;;;;27.76;37.01;99842.19;4472496;32;804683;-85
2021/07/02 04:05:05;;;;;;;;;;;;;;;27.87;36.81;99837.53;4486989;31;804310;-87
2021/07/02 04:07:54;;;;;;;;;;;;;;;27.96;36.33;99834.78;4470114;32;838833;-85
2021/07/02 04:10:46;;;;;;;;;;;;;;;27.42;37.75;99831.38;4447645;31;2054277;-84
2021/07/02 04:13:39;;;;;;;;;;;;;;;27.67;36.86;99843.94;4454690;32;1369158;-84
2021/07/02 04:16:31;;;;;;;;;;;;;;;27.23;37.77;99835.00;4399599;31;3643377;-87
2021/07/02 04:19:25;;;;;;;;;;;;;;;27.07;37.83;99831.22;4468111;31;901376;-86
2021/07/02 04:22:17;;;;;;;;;;;;;;;26.99;38.19;99839.13;4485439;31;850061;-86
2021/07/02 04:35:29;;;;;;;;;;;;;;;26.83;38.93;99847.81;4409693;32;789496;-85
2021/07/02 04:38:16;;;;;;;;;;;;;;;27.32;38.33;99834.97;4399684;31;3595571;-85
2021/07/02 04:41:17;;;;;;;;;;;;;;;27.46;38.95;99832.75;4517527;31;827842;-87
2021/07/02 04:44:18;;;;;;;;;;;;;;;27.25;39.88;99833.03;4487447;31;794745;-86
2021/07/02 04:47:16;;;;;;;;;;;;;;;27.07;39.95;99836.56;4472134;31;1266935;-85
2021/07/02 04:50:08;;;;;;;;;;;;;;;27.15;40.29;99835.78;4469839;32;848522;-87
2021/07/02 04:53:03;;;;;;;;;;;;;;;27.12;40.33;99849.47;4518710;31;792903;-87
2021/07/02 05:06:13;;;;;;;;;;;;;;;26.99;41.19;99863.19;4472365;31;803345;-86
2021/07/02 05:08:53;;;;;;;;;;;;;;;27.43;39.48;99857.97;4471748;32;791024;-86
2021/07/02 05:11:34;;;;;;;;;;;;;;;27.59;39.31;99870.66;4472500;31;803583;-85
2021/07/02 05:14:15;;;;;;;;;;;;;;;26.87;40.63;99869.75;4473152;31;782492;-86
2021/07/02 05:17:04;;;;;;;;;;;;;;;27.16;39.49;99870.41;4504149;31;797089;-85
2021/07/02 05:19:45;;;;;;;;;;;;;;;26.89;40.14;99870.44;4485221;31;862529;-86
2021/07/02 05:22:29;;;;;;;;;;;;;;;27.37;38.67;99871.09;4456433;32;819916;-86
2021/07/02 05:25:18;;;;;;;;;;;;;;;27.15;39.01;99871.41;4475116;31;745557;-83
2021/07/02 05:28:03;;;;;;;;;;;;;;;27.65;37.51;99866.50;4472737;32;800918;-86
2021/07/02 05:30:43;;;;;;;;;;;;;;;27.33;38.27;99870.56;4472568;31;795007;-86
2021/07/02 05:33:24;;;;;;;;;;;;;;;26.98;38.71;99864.19;4458226;32;788348;-85
2021/07/02 05:36:14;;;;;;;;;;;;;;;26.74;39.01;99864.75;4517838;31;873614;-89
2021/07/02 05:39:00;;;;;;;;;;;;;;;27.09;38.55;99866.66;4473159;31;791202;-87
2021/07/02 05:41:46;;;;;;;;;;;;;;;26.64;39.35;99868.28;4487165;31;840460;-84
2021/07/02 05:44:31;;;;;;;;;;;;;;;27.28;38.30;99870.16;4458496;32;801191;-86
2021/07/02 05:47:16;;;;;;;;;;;;;;;26.79;39.11;99871.34;4473315;32;819402;-87
2021/07/02 05:50:01;;;;;;;;;;;;;;;26.56;39.45;99872.69;4472736;32;787546;-85
2021/07/02 05:52:51;;;;;;;;;;;;;;;27.34;37.56;99875.75;4470326;32;896869;-85
2021/07/02 05:55:35;;;;;;;;;;;;;;;27.25;37.68;99882.00;4473095;32;808421;-86
2021/07/02 05:58:19;;;;;;;;;;;;;;;27.71;36.38;99873.06;4462966;31;1596613;-83
2021/07/02 06:01:03;;;;;;;;;;;;;;;26.98;37.72;99889.09;4462598;32;789739;-86
2021/07/02 06:03:48;;;;;;;;;;;;;;;27.26;37.26;99882.88;4470545;31;787674;-85
2021/07/02 06:06:36;;;;;;;;;;;;;;;27.31;37.30;99892.09;4471053;31;800854;-85
2021/07/02 06:09:20;;;;;;;;;;;;;;;27.12;37.62;99895.78;4469643;32;803452;-85
2021/07/02 06:12:03;;;;;;;;;;;;;;;27.80;36.17;99888.19;4489507;31;1211384;-87
2021/07/02 06:14:43;;;;;;;;;;;;;;;27.98;35.69;99894.34;4468222;32;834091;-87
2021/07/02 06:17:28;;;;;;;;;;;;;;;27.80;35.85;99906.94;4517640;31;741203;-85
2021/07/02 06:20:15;;;;;;;;;;;;;;;27.52;36.40;99898.19;4500019;31;878350;-89
2021/07/02 06:23:04;;;;;;;;;;;;;;;27.69;35.87;99909.87;4467442;31;879223;-85
2021/07/02 06:25:50;;;;;;;;;;;;;;;26.94;37.21;99906.44;4468401;32;799761;-85
2021/07/02 06:28:30;;;;;;;;;;;;;;;27.03;37.16;99906.50;4467906;32;869690;-85
2021/07/02 06:31:11;;;;;;;;;;;;;;;26.79;37.86;99915.91;4469203;31;793944;-84
2021/07/02 06:33:56;;;;;;;;;;;;;;;25.83;39.61;99915.03;4484676;31;803685;-87
2021/07/02 06:36:40;;;;;;;;;;;;;;;26.24;38.86;99916.69;4468311;32;818637;-85
2021/07/02 06:39:25;;;;;;;;;;;;;;;26.60;38.28;99925.69;4453686;32;787861;-87
2021/07/02 06:42:09;;;;;;;;;;;;;;;25.57;40.61;99929.91;4468295;32;817347;-85
2021/07/02 06:44:53;;;;;;;;;;;;;;;26.14;39.58;99933.56;4470385;32;793458;-87
2021/07/02 06:48:08;;;;;;;;;;;;;;;26.17;39.56;99924.44;4472000;31;791004;-85
2021/07/02 06:50:56;;;;;;;;;;;;;;;26.46;38.61;99931.53;4471643;32;792282;-88
2021/07/02 06:53:40;;;;;;;;;;;;;;;26.19;38.79;99934.97;4455179;32;787822;-84
2021/07/02 06:56:24;;;;;;;;;;;;;;;25.95;39.43;99945.09;4470748;31;789970;-87
2021/07/02 06:59:11;;;;;;;;;;;;;;;25.79;39.57;99943.00;4466776;32;879286;-85
2021/07/02 07:01:54;;;;;;;;;;;;;;;25.87;39.52;99939.59;4455353;31;778658;-86
2021/07/02 07:04:39;;;;;;;;;;;;;;;26.36;38.45;99939.53;4470843;31;788186;-87
2021/07/02 07:07:31;;;;;;;;;;;;;;;26.67;37.88;99939.28;4508274;31;1047818;-86
2021/07/02 07:10:17;;;;;;;;;;;;;;;25.83;40.03;99946.19;4468670;31;800131;-85
2021/07/02 07:13:02;;;;;;;;;;;;;;;26.66;38.11;99929.62;4470351;31;809935;-86
2021/07/02 07:15:48;;;;;;;;;;;;;;;26.63;38.32;99932.56;4472437;31;735311;-87
2021/07/02 07:18:41;;;;;;;;;;;;;;;25.97;39.38;99935.09;4518803;31;746498;-86
2021/07/02 07:21:31;;;;;;;;;;;;;;;26.12;39.66;99932.03;4471202;31;792350;-85
2021/07/02 07:24:19;;;;;;;;;;;;;;;26.47;38.73;99926.03;4469059;32;793505;-83
2021/07/02 07:27:04;;;;;;;;;;;;;;;26.81;38.33;99916.63;4484558;31;798291;-85
2021/07/02 07:29:52;;;;;;;;;;;;;;;26.63;38.73;99920.06;4469161;31;785676;-86
2021/07/02 07:32:34;;;;;;;;;;;;;;;26.64;38.81;99921.72;4468604;32;805399;-87
2021/07/02 07:35:28;;;;;;;;;;;;;;;27.10;38.14;99918.31;4469060;31;789981;-87
2021/07/02 07:38:13;;;;;;;;;;;;;;;27.05;38.48;99909.87;4468897;32;792216;-86
2021/07/02 07:41:01;;;;;;;;;;;;;;;27.29;37.65;99909.31;4468455;32;854128;-87
2021/07/02 07:43:51;;;;;;;;;;;;;;;27.84;36.36;99913.66;4518607;31;759344;-87
2021/07/02 07:46:40;;;;;;;;;;;;;;;27.46;37.33;99911.16;4467596;32;825762;-86
2021/07/02 07:49:24;;;;;;;;;;;;;;;28.04;35.72;99909.00;4468275;31;800718;-87
2021/07/02 07:54:57;;;;;;;;;;;;;;;28.43;35.08;99918.44;4468707;32;798377;-86
2021/07/02 07:57:46;;;;;;;;;;;;;;;27.58;36.15;99924.34;4497260;31;944147;-88
2021/07/02 08:00:32;;;;;;;;;;;;;;;28.13;34.74;99918.78;4465966;32;804969;-84
2021/07/02 08:03:17;;;;;;;;;;;;;;;28.10;34.67;99919.06;4486662;31;813441;-85
2021/07/02 08:06:02;;;;;;;;;;;;;;;28.08;34.64;99921.09;4473983;31;801793;-85
2021/07/02 08:08:47;;;;;;;;;;;;;;;27.85;34.77;99918.03;4473813;32;795386;-84
2021/07/02 08:11:31;;;;;;;;;;;;;;;28.19;34.16;99922.66;4472503;32;789031;-84
2021/07/02 08:14:16;;;;;;;;;;;;;;;28.39;33.91;99927.81;4487910;31;789684;-86
2021/07/02 08:17:04;;;;;;;;;;;;;;;28.19;34.11;99929.84;4473626;32;798734;-83
2021/07/02 08:30:13;;;;;;;;;;;;;;;29.38;31.40;99930.91;5313355;26;996895;-84
2021/07/02 08:32:58;;;;;;;;;;;;;;;28.94;32.07;99932.75;4471805;31;836802;-85
2021/07/02 08:35:42;;;;;;;;;;;;;;;28.75;32.44;99928.50;4472123;31;828597;-86
2021/07/02 08:38:31;;;;;;;;;;;;;;;28.93;32.43;99939.16;4469230;31;871603;-83
2021/07/02 08:41:22;;;;;;;;;;;;;;;28.47;33.02;99935.88;4522000;31;748771;-83
2021/07/02 08:44:11;;;;;;;;;;;;;;;29.02;31.97;99933.81;4474194;31;750551;-85
2021/07/02 08:46:56;;;;;;;;;;;;;;;29.58;31.29;99929.56;4473354;32;802203;-85
2021/07/02 08:49:43;;;;;;;;;;;;;;;29.45;31.93;99926.53;4462939;31;1071745;-86
2021/07/02 08:52:28;;;;;;;;;;;;;;;29.93;31.14;99937.47;4473111;31;798688;-83
2021/07/02 08:55:13;;;;;;;;;;;;;;;30.44;30.20;99926.50;4473210;31;795712;-85
2021/07/02 08:58:13;;;;;;;;;;;;;;;30.17;30.77;99928.59;4493055;31;1200054;-83
2021/07/02 09:11:26;;;;;;;;;;;;;;;30.63;29.59;99915.38;4484796;31;843231;-85
2021/07/02 09:14:23;;;;;;;;;;;;;;;31.11;28.89;99914.50;4473195;31;805529;-86
2021/07/02 09:17:09;;;;;;;;;;;;;;;30.87;29.13;99920.81;4471909;31;796678;-87
2021/07/02 09:20:06;;;;;;;;;;;;;;;31.09;28.43;99920.06;4468264;31;899526;-84
2021/07/02 09:22:51;;;;;;;;;;;;;;;31.39;28.25;99932.81;4472729;32;803902;-85
2021/07/02 09:25:46;;;;;;;;;;;;;;;31.24;28.30;99925.50;4473168;32;793405;-83
2021/07/02 09:28:32;;;;;;;;;;;;;;;31.44;28.00;99925.06;4474434;32;822801;-87
2021/07/02 09:31:32;;;;;;;;;;;;;;;31.25;28.06;99921.81;4470689;32;841622;-84
2021/07/02 09:34:23;;;;;;;;;;;;;;;31.62;27.73;99912.16;4469387;32;791072;-86
2021/07/02 09:37:41;;;;;;;;;;;;;;;31.20;28.11;99913.44;4469370;32;795060;-85
2021/07/02 09:50:52;;;;;;;;;;;;;;;32.38;26.32;99900.50;4406281;32;796183;-88
2021/07/02 09:53:28;;;;;;;;;;;;;;;32.38;26.32;99900.50;4417661;32;34462;-83
2021/07/02 09:55:58;;;;;;;;;;;;;;;31.07;28.42;99899.72;4432731;32;34319;-84
2021/07/02 09:58:28;;;;;;;;;;;;;;;30.66;28.51;99906.12;4392154;32;33018;-85
2021/07/02 10:01:01;;;;;;;;;;;;;;;31.48;27.24;99899.44;4416451;32;34337;-87
2021/07/02 10:03:30;;;;;;;;;;;;;;;30.96;27.83;99898.25;4391584;32;35155;-83
2021/07/02 10:06:02;;;;;;;;;;;;;;;31.65;27.02;99894.81;4458014;32;34730;-86
2021/07/02 10:08:33;;;;;;;;;;;;;;;31.20;27.54;99894.59;4391234;32;36339;-88
2021/07/02 10:11:16;;;;;;;;;;;;;;;31.14;27.60;99887.25;4407885;32;33749;-85
2021/07/02 10:13:45;;;;;;;;;;;;;;;31.60;26.92;99889.09;4404263;32;34517;-86
2021/07/02 10:16:13;;;;;;;;;;;;;;;31.62;26.76;99896.00;4405616;32;34358;-87
2021/07/02 10:18:51;;;;;;;;;;;;;;;32.10;25.71;99887.63;4405128;32;34766;-88
2021/07/02 10:21:20;;;;;;;;;;;;;;;31.02;27.25;99891.31;4416638;32;34007;-85
2021/07/02 10:23:48;;;;;;;;;;;;;;;31.38;26.81;99880.00;4417075;32;33364;-84
2021/07/02 10:26:16;;;;;;;;;;;;;;;31.38;26.96;99878.16;4456403;32;34555;-86
2021/07/02 10:28:44;;;;;;;;;;;;;;;31.16;27.05;99879.81;4416590;32;35779;-86
2021/07/02 10:31:12;;;;;;;;;;;;;;;31.15;27.43;99886.22;4405466;32;34469;-85
2021/07/02 10:33:41;;;;;;;;;;;;;;;30.75;27.90;99878.16;4419485;32;34145;-85
2021/07/02 10:36:14;;;;;;;;;;;;;;;30.39;27.76;99877.81;4405138;32;34944;-87
2021/07/02 10:38:42;;;;;;;;;;;;;;;31.33;26.48;99872.47;4416751;32;34732;-84
2021/07/02 10:41:11;;;;;;;;;;;;;;;30.80;26.97;99875.78;4417007;32;33706;-86
2021/07/02 10:43:57;;;;;;;;;;;;;;;30.53;27.21;99873.56;4404507;32;34190;-85
2021/07/02 10:46:25;;;;;;;;;;;;;;;31.09;26.31;99878.87;4403798;32;34405;-87
2021/07/02 10:49:01;;;;;;;;;;;;;;;31.93;25.30;99859.19;4404131;32;34898;-84
2021/07/02 10:51:29;;;;;;;;;;;;;;;32.40;24.46;99870.66;4421659;32;34162;-88
2021/07/02 10:54:20;;;;;;;;;;;;;;;32.64;24.37;99858.72;4407181;32;32596;-87
2021/07/02 10:56:54;;;;;;;;;;;;;;;32.86;23.83;99858.81;4405943;32;34947;-88
2021/07/02 10:59:23;;;;;;;;;;;;;;;33.68;23.15;99851.28;4393627;32;34785;-87
2021/07/02 11:02:03;;;;;;;;;;;;;;;33.49;23.44;99853.63;4395171;32;35735;-88
2021/07/02 11:04:32;;;;;;;;;;;;;;;33.74;23.25;99867.53;4394271;32;34074;-86
2021/07/02 11:07:00;;;;;;;;;;;;;;;33.39;23.30;99864.78;4393893;32;34943;-87
2021/07/02 11:09:47;;;;;;;;;;;;;;;32.78;23.60;99865.97;4407028;32;35079;-87
2021/07/02 11:12:18;;;;;;;;;;;;;;;32.84;23.73;99861.69;4406291;32;34165;-86
2021/07/02 11:14:51;;;;;;;;;;;;;;;32.77;24.09;99866.16;4420313;32;33472;-86
2021/07/02 11:17:33;;;;;;;;;;;;;;;33.10;23.37;99869.22;4406593;32;34203;-87
2021/07/02 11:20:12;;;;;;;;;;;;;;;32.59;24.22;99855.78;4405174;32;34028;-87
2021/07/02 11:22:58;;;;;;;;;;;;;;;33.04;23.88;99861.91;4421836;32;33919;-86
2021/07/02 11:25:35;;;;;;;;;;;;;;;32.79;24.01;99856.03;4420424;32;33015;-85
2021/07/02 11:28:06;;;;;;;;;;;;;;;32.73;24.02;99849.53;4394890;32;34206;-86
2021/07/02 11:30:43;;;;;;;;;;;;;;;33.06;23.57;99851.75;4395133;32;33442;-88
2021/07/02 11:33:18;;;;;;;;;;;;;;;32.52;24.14;99836.78;4406223;32;32638;-86
2021/07/02 11:35:54;;;;;;;;;;;;;;;32.94;23.73;99840.63;4394990;32;33234;-87
2021/07/02 11:38:22;;;;;;;;;;;;;;;32.16;24.57;99851.03;4420558;32;34296;-87
2021/07/02 11:40:50;;;;;;;;;;;;;;;32.68;24.08;99845.69;4406398;32;35152;-88
2021/07/02 11:43:19;;;;;;;;;;;;;;;33.27;23.38;99840.16;4407060;32;33540;-87
2021/07/02 11:45:48;;;;;;;;;;;;;;;33.15;23.72;99830.88;4402045;32;33452;-87
2021/07/02 11:48:20;;;;;;;;;;;;;;;33.29;23.42;99839.94;4405730;32;34193;-89
2021/07/02 11:50:48;;;;;;;;;;;;;;;33.10;23.87;99830.63;4406927;32;35138;-89
2021/07/02 11:53:33;;;;;;;;;;;;;;;33.69;23.36;99829.47;4405941;32;34807;-83
2021/07/02 11:56:03;;;;;;;;;;;;;;;33.44;22.78;99837.16;4470944;32;32369;-87
2021/07/02 11:58:31;;;;;;;;;;;;;;;33.20;23.49;99841.09;4381227;32;34362;-87
2021/07/02 12:01:02;;;;;;;;;;;;;;;32.60;24.35;99838.53;4406305;32;34211;-87
2021/07/02 12:03:31;;;;;;;;;;;;;;;32.41;24.27;99840.81;4392844;32;35364;-85
2021/07/02 12:06:00;;;;;;;;;;;;;;;33.16;23.46;99840.66;4393826;32;33570;-89
2021/07/02 12:08:28;;;;;;;;;;;;;;;33.70;22.44;99841.13;4393206;32;33113;-88
2021/07/02 12:10:56;;;;;;;;;;;;;;;33.39;23.15;99828.84;4406565;32;34450;-87
2021/07/02 12:13:24;;;;;;;;;;;;;;;33.35;23.06;99824.88;4406354;32;34290;-85
2021/07/02 12:16:19;;;;;;;;;;;;;;;32.91;23.71;99827.53;4393709;32;33663;-89
2021/07/02 12:18:51;;;;;;;;;;;;;;;33.47;22.92;99831.41;4404777;32;35729;-86
2021/07/02 12:21:19;;;;;;;;;;;;;;;32.94;23.47;99816.34;4420005;32;34272;-88
2021/07/02 12:23:46;;;;;;;;;;;;;;;32.87;23.68;99818.16;4407670;32;32806;-87
2021/07/02 12:26:16;;;;;;;;;;;;;;;34.15;22.01;99814.62;4445890;32;32065;-88
2021/07/02 12:28:54;;;;;;;;;;;;;;;33.87;22.23;99812.81;4394307;32;34985;-88
2021/07/02 12:31:22;;;;;;;;;;;;;;;33.87;21.56;99817.37;4393781;32;34393;-85
2021/07/02 12:33:50;;;;;;;;;;;;;;;33.06;22.67;99813.97;4484432;31;35593;-85
2021/07/02 12:36:17;;;;;;;;;;;;;;;33.24;22.54;99816.22;4406271;32;32690;-86
2021/07/02 12:38:58;;;;;;;;;;;;;;;33.89;21.61;99810.75;4419664;32;34060;-84
2021/07/02 12:41:33;;;;;;;;;;;;;;;33.27;21.98;99809.63;4394479;32;34700;-87
2021/07/02 12:44:00;;;;;;;;;;;;;;;32.43;23.33;99816.34;4405797;32;34780;-85
2021/07/02 12:46:28;;;;;;;;;;;;;;;32.95;22.90;99809.09;4419860;32;33600;-86
2021/07/02 12:49:18;;;;;;;;;;;;;;;33.75;22.24;99809.78;4393613;32;35157;-85
2021/07/02 12:52:01;;;;;;;;;;;;;;;33.84;22.63;99809.66;4398472;32;34405;-82
2021/07/02 12:54:57;;;;;;;;;;;;;;;34.48;21.09;99810.41;4393430;32;32921;-87
2021/07/02 12:57:31;;;;;;;;;;;;;;;34.21;21.23;99813.84;4407415;32;33006;-86
2021/07/02 12:59:58;;;;;;;;;;;;;;;33.55;22.19;99816.91;4394434;32;32805;-86
2021/07/02 13:02:29;;;;;;;;;;;;;;;34.13;21.78;99822.94;4393711;32;35591;-88
2021/07/02 13:04:58;;;;;;;;;;;;;;;34.15;21.73;99813.78;4405988;32;33758;-85
2021/07/02 13:07:26;;;;;;;;;;;;;;;33.70;22.04;99824.91;4394223;32;31788;-83
2021/07/02 13:10:05;;;;;;;;;;;;;;;33.93;21.55;99819.28;4393121;32;34844;-88
2021/07/02 13:12:32;;;;;;;;;;;;;;;33.29;22.24;99810.25;4419639;32;34348;-84
2021/07/02 13:15:13;;;;;;;;;;;;;;;33.59;22.07;99819.03;4381320;32;35128;-85
2021/07/02 13:17:41;;;;;;;;;;;;;;;32.36;23.73;99829.75;4393619;32;33668;-88
2021/07/02 13:20:09;;;;;;;;;;;;;;;32.36;23.68;99823.53;4405952;32;34204;-87
2021/07/02 13:22:36;;;;;;;;;;;;;;;33.35;22.51;99819.47;4406041;32;34564;-84
2021/07/02 13:25:09;;;;;;;;;;;;;;;32.99;22.96;99820.31;4405911;32;34101;-85
2021/07/02 13:27:37;;;;;;;;;;;;;;;33.60;22.46;99815.28;4405651;32;33389;-86
2021/07/02 13:30:07;;;;;;;;;;;;;;;34.01;21.73;99819.13;4406031;32;33913;-87
2021/07/02 13:32:34;;;;;;;;;;;;;;;33.76;22.32;99829.53;4405704;32;34246;-87
2021/07/02 13:35:19;;;;;;;;;;;;;;;34.21;21.81;99829.19;4393720;32;34322;-89
2021/07/02 13:37:54;;;;;;;;;;;;;;;34.16;21.87;99831.66;4392915;32;33726;-87
2021/07/02 13:40:35;;;;;;;;;;;;;;;34.36;21.15;99819.13;4392369;32;33419;-86
2021/07/02 13:43:04;;;;;;;;;;;;;;;32.99;22.85;99826.56;4419361;32;35068;-88
2021/07/02 13:45:32;;;;;;;;;;;;;;;33.17;22.54;99819.88;4405387;32;34035;-88
2021/07/02 13:48:06;;;;;;;;;;;;;;;33.05;22.46;99830.34;4406012;32;32350;-86
2021/07/02 13:50:36;;;;;;;;;;;;;;;33.06;22.71;99816.66;4405051;32;34606;-84
2021/07/02 13:53:11;;;;;;;;;;;;;;;33.83;22.21;99816.94;4404279;32;34279;-86
2021/07/02 13:55:39;;;;;;;;;;;;;;;34.15;21.94;99824.59;4392297;32;33222;-85
2021/07/02 13:58:07;;;;;;;;;;;;;;;34.29;21.55;99827.16;4379572;32;33077;-88
2021/07/02 14:00:34;;;;;;;;;;;;;;;34.50;21.60;99819.16;4404588;32;33331;-88
2021/07/02 14:03:02;;;;;;;;;;;;;;;34.39;21.73;99821.41;4392068;32;33463;-89
2021/07/02 14:05:29;;;;;;;;;;;;;;;34.29;21.91;99821.75;4379890;32;33330;-84
2021/07/02 14:07:56;;;;;;;;;;;;;;;34.48;21.51;99823.94;4408685;32;33913;-84
2021/07/02 14:10:24;;;;;;;;;;;;;;;34.46;21.16;99813.31;4423405;32;33824;-84
2021/07/02 14:12:51;;;;;;;;;;;;;;;34.42;20.92;99820.19;4408795;32;34237;-87
2021/07/02 14:15:20;;;;;;;;;;;;;;;34.30;21.32;99822.59;4409636;32;33010;-85
2021/07/02 14:17:48;;;;;;;;;;;;;;;33.95;21.68;99823.44;4395766;32;33216;-86
2021/07/02 14:20:15;;;;;;;;;;;;;;;33.83;22.15;99830.44;4393089;32;34252;-85
2021/07/02 14:22:43;;;;;;;;;;;;;;;33.93;21.46;99827.38;4393503;32;34169;-88
2021/07/02 14:25:20;;;;;;;;;;;;;;;33.23;22.47;99828.03;4406158;32;34692;-84
2021/07/02 14:27:47;;;;;;;;;;;;;;;33.51;22.05;99829.97;4407160;32;33060;-85
2021/07/02 14:30:15;;;;;;;;;;;;;;;33.67;21.82;99815.34;4407546;32;34183;-87
2021/07/02 14:32:43;;;;;;;;;;;;;;;34.26;21.49;99829.44;4407526;32;34492;-86
2021/07/02 14:35:15;;;;;;;;;;;;;;;34.17;21.47;99825.22;4395418;32;34153;-88
2021/07/02 14:37:43;;;;;;;;;;;;;;;34.07;21.40;99822.91;4407937;32;33140;-88
2021/07/02 14:40:11;;;;;;;;;;;;;;;32.92;22.90;99831.06;4395343;32;33498;-86
2021/07/02 14:42:39;;;;;;;;;;;;;;;31.22;25.60;99824.44;4394709;32;34480;-87
2021/07/02 14:45:08;;;;;;;;;;;;;;;31.54;25.35;99820.66;4394360;32;33193;-88
2021/07/02 14:47:36;;;;;;;;;;;;;;;32.06;24.82;99834.31;4407807;32;33477;-85
2021/07/02 14:50:05;;;;;;;;;;;;;;;32.21;24.78;99828.94;4407756;32;33847;-87
2021/07/02 14:52:32;;;;;;;;;;;;;;;33.00;23.93;99832.78;4394877;32;33117;-86
2021/07/02 14:54:59;;;;;;;;;;;;;;;32.80;23.98;99839.66;4407537;32;34930;-86
2021/07/02 14:57:28;;;;;;;;;;;;;;;33.43;22.93;99827.41;4408397;32;33471;-86
2021/07/02 14:59:56;;;;;;;;;;;;;;;33.60;22.71;99830.66;4407206;32;33415;-84
2021/07/02 15:02:23;;;;;;;;;;;;;;;33.23;23.42;99846.13;4407284;32;34778;-85
2021/07/02 15:04:51;;;;;;;;;;;;;;;32.55;24.05;99840.97;4407531;32;34112;-87
2021/07/02 15:07:25;;;;;;;;;;;;;;;33.78;22.72;99825.63;4396139;32;33458;-88
2021/07/02 15:09:55;;;;;;;;;;;;;;;33.53;22.93;99836.00;4421401;32;34785;-86
2021/07/02 15:12:22;;;;;;;;;;;;;;;33.34;23.06;99834.81;4407687;32;35114;-87
2021/07/02 15:14:50;;;;;;;;;;;;;;;34.04;22.14;99834.94;4421493;32;34247;-87
2021/07/02 15:17:17;;;;;;;;;;;;;;;34.08;21.68;99838.91;4407613;32;32831;-86
2021/07/02 15:19:45;;;;;;;;;;;;;;;34.04;21.67;99839.50;4421267;32;34258;-87
2021/07/02 15:22:12;;;;;;;;;;;;;;;34.44;21.08;99837.03;4421380;32;35133;-87
2021/07/02 15:24:39;;;;;;;;;;;;;;;33.33;22.54;99833.13;4382527;32;33664;-85
2021/07/02 15:27:07;;;;;;;;;;;;;;;34.36;21.40;99831.78;4407280;32;33820;-86
2021/07/02 15:29:54;;;;;;;;;;;;;;;33.69;22.33;99826.78;4395741;32;33486;-87
2021/07/02 15:32:34;;;;;;;;;;;;;;;34.40;21.64;99827.69;4394431;32;33367;-86
2021/07/02 15:35:02;;;;;;;;;;;;;;;34.22;21.94;99825.47;4406924;32;33939;-86
2021/07/02 15:37:29;;;;;;;;;;;;;;;34.10;21.84;99823.31;4407246;32;33626;-88
2021/07/02 15:39:57;;;;;;;;;;;;;;;34.24;21.80;99823.41;4406796;32;32878;-87
2021/07/02 15:42:24;;;;;;;;;;;;;;;34.82;21.33;99822.19;4394256;32;32609;-84
2021/07/02 15:44:52;;;;;;;;;;;;;;;34.14;22.05;99818.34;4395823;32;35343;-85
2021/07/02 15:47:19;;;;;;;;;;;;;;;33.85;22.38;99831.06;4407044;32;32970;-89
2021/07/02 15:49:46;;;;;;;;;;;;;;;33.82;22.35;99823.38;4406886;32;33920;-87